createdAt,value
2022-12-29T00:07:22.135Z,15.30
2022-12-29T00:15:40.001Z,14.00
2022-12-29T00:24:00.403Z,14.38
2022-12-29T00:32:18.359Z,12.82
2022-12-29T00:40:38.714Z,12.18
2022-12-29T00:48:56.470Z,12.57
2022-12-29T00:57:04.946Z,12.95
2022-12-29T01:05:10.970Z,13.45
2022-12-29T01:13:19.594Z,14.25
2022-12-29T01:21:25.167Z,14.48
2022-12-29T01:29:33.220Z,14.05
2022-12-29T01:37:38.623Z,14.23
2022-12-29T01:45:52.259Z,13.93
2022-12-29T01:53:59.738Z,14.27
2022-12-29T02:02:08.570Z,15.32
2022-12-29T02:10:14.057Z,13.23
2022-12-29T02:18:36.440Z,13.73
2022-12-29T02:27:12.308Z,12.77
2022-12-29T02:35:32.032Z,12.48
2022-12-29T02:43:43.516Z,12.93
2022-12-29T02:51:56.775Z,12.15
2022-12-29T03:00:08.764Z,12.65
2022-12-29T03:08:27.047Z,12.07
2022-12-29T03:16:40.345Z,12.18
2022-12-29T03:24:52.117Z,11.65
2022-12-29T03:33:02.547Z,12.27
2022-12-29T03:41:18.653Z,11.68
2022-12-29T03:57:32.924Z,12.20
2022-12-29T04:05:42.624Z,11.75
2022-12-29T04:13:50.833Z,13.75
2022-12-29T04:22:00.531Z,13.25
2022-12-29T04:30:10.865Z,13.52
2022-12-29T04:38:31.748Z,13.50
2022-12-29T04:46:47.029Z,13.90
2022-12-29T04:55:08.443Z,14.57
2022-12-29T05:03:16.812Z,16.02
2022-12-29T05:11:24.281Z,18.50
2022-12-29T05:19:34.825Z,19.33
2022-12-29T05:27:40.812Z,19.77
2022-12-29T05:36:01.219Z,19.00
2022-12-29T05:44:07.257Z,17.90
2022-12-29T05:52:34.005Z,17.30
2022-12-29T06:00:39.633Z,16.88
2022-12-29T06:08:48.241Z,19.55
2022-12-29T06:16:53.814Z,17.95
2022-12-29T06:25:05.162Z,15.13
2022-12-29T06:33:13.140Z,14.23
2022-12-29T06:41:23.553Z,14.43
2022-12-29T06:49:49.789Z,14.70
2022-12-29T06:57:58.547Z,15.55
2022-12-29T07:06:04.015Z,14.98
2022-12-29T07:14:12.405Z,16.27
2022-12-29T07:22:18.153Z,18.30
2022-12-29T07:30:26.502Z,16.20
2022-12-29T07:38:32.852Z,15.95
2022-12-29T07:46:56.343Z,16.98
2022-12-29T07:55:02.871Z,15.40
2022-12-29T08:03:11.097Z,15.27
2022-12-29T08:11:16.791Z,14.65
2022-12-29T08:19:25.665Z,15.30
2022-12-29T08:27:31.563Z,18.05
2022-12-29T08:35:43.158Z,17.15
2022-12-29T08:43:51.382Z,16.48
2022-12-29T08:51:59.646Z,17.48
2022-12-29T09:00:09.274Z,15.02
2022-12-29T09:08:23.883Z,14.43
2022-12-29T09:16:34.752Z,14.07
2022-12-29T09:26:07.553Z,13.95
2022-12-29T10:35:24.410Z,12.48
2022-12-29T10:43:52.462Z,13.73
2022-12-29T10:52:05.168Z,13.90
2022-12-29T11:00:24.265Z,11.05
2022-12-29T11:08:39.355Z,13.43
2022-12-29T11:16:47.481Z,13.23
2022-12-29T11:25:08.960Z,14.20
2022-12-29T11:33:24.688Z,15.95
2022-12-29T11:41:36.031Z,16.33
2022-12-29T11:49:42.723Z,15.35
2022-12-29T11:57:51.273Z,17.80
2022-12-29T12:06:02.844Z,17.02
2022-12-29T12:14:22.039Z,14.30
2022-12-29T12:22:58.525Z,16.25
2022-12-29T12:31:09.475Z,16.63
2022-12-29T12:39:30.666Z,16.92
2022-12-29T12:47:56.617Z,18.13
2022-12-29T12:56:27.759Z,18.50
2022-12-29T13:05:09.027Z,18.85
2022-12-29T13:13:38.070Z,17.63
2022-12-29T13:22:05.714Z,15.20
2022-12-29T13:30:17.016Z,15.30
2022-12-29T13:38:33.036Z,15.05
2022-12-29T13:46:46.853Z,16.08
2022-12-29T13:55:04.111Z,14.95
2022-12-29T14:03:46.803Z,14.15
2022-12-29T14:11:55.648Z,15.13
2022-12-29T14:20:03.697Z,19.80
2022-12-29T14:28:27.719Z,16.65
2022-12-29T14:36:40.458Z,12.77
2022-12-29T14:44:59.820Z,13.40
2022-12-29T14:53:09.546Z,15.63
2022-12-29T15:01:26.607Z,17.75
2022-12-29T15:09:39.874Z,19.15
2022-12-29T15:17:48.904Z,18.23
2022-12-29T15:25:59.927Z,17.60
2022-12-29T15:34:15.842Z,19.65
2022-12-29T15:42:43.813Z,22.80
2022-12-29T15:50:52.677Z,25.58
2022-12-29T15:58:59.579Z,28.88
2022-12-29T16:07:11.016Z,23.15
2022-12-29T16:15:18.126Z,21.15
2022-12-29T16:23:36.617Z,21.65
2022-12-29T16:32:01.928Z,21.00
2022-12-29T16:40:32.450Z,21.92
2022-12-29T16:48:41.194Z,19.17
2022-12-29T16:56:50.399Z,21.02
2022-12-29T17:04:55.947Z,22.13
2022-12-29T17:13:07.133Z,21.23
2022-12-29T17:21:14.059Z,22.80
2022-12-29T17:29:28.852Z,24.23
2022-12-29T17:37:37.862Z,29.63
2022-12-29T17:54:55.926Z,28.27
2022-12-29T18:12:43.770Z,25.33
2022-12-29T18:20:59.318Z,26.42
2022-12-29T18:29:37.056Z,25.85
2022-12-29T18:46:50.265Z,22.02
2022-12-29T19:04:30.832Z,27.13
2022-12-29T19:21:26.738Z,28.15
2022-12-29T19:29:34.944Z,26.38
2022-12-29T19:37:44.348Z,28.35
2022-12-29T19:45:51.590Z,30.13
2022-12-29T20:03:47.107Z,25.52
2022-12-29T20:12:13.856Z,23.60
2022-12-29T20:20:25.148Z,23.23
2022-12-29T20:29:13.859Z,23.67
2022-12-29T20:37:23.162Z,26.80
2022-12-29T20:55:11.967Z,19.10
2022-12-29T21:03:20.963Z,19.00
2022-12-29T21:11:27.055Z,19.58
2022-12-29T21:19:35.407Z,19.45
2022-12-29T21:27:40.802Z,20.65
2022-12-29T21:35:53.564Z,24.45
2022-12-29T21:44:11.386Z,15.77
2022-12-29T22:09:44.489Z,23.45
2022-12-29T22:35:18.039Z,23.65
2022-12-29T22:43:24.627Z,24.30
2022-12-29T22:51:32.894Z,26.33
2022-12-29T22:59:50.091Z,24.02
2022-12-29T23:07:58.018Z,24.00
2022-12-29T23:51:08.984Z,24.75
2022-12-29T23:59:14.400Z,23.75
